Tompkins, Canada
Current Conditions -  °F | °C
As of 1:56 AM on Monday 22 Dec 2014 (Local Time) from CYYN Reporting Station
Light Snow Light Snow  
Wind Chill:   Ceiling: NA
Heat Index: 19°   Visibility: 3mi
Dew Point: 19°   Wind: 18mph
Humidity: 100%   Direction: 300°WNW
Pressure: 29.53"   Gusts: 24mph
Location:  50.07°N, 108.8°W
Report Text: CYYN 220756Z AUTO 30016G21KT 3SM -SN M07/M07 A2953 RMK CLD MISG SLP033
Loading
Personal Weather Stations






























Interactive Weather Map New forecast layout! Learn more

10-Day Weather Forecast

Advertisements
Track Severe Weather on mobile